sensor_id;sensor_type;location;lat;lon;timestamp;temperature;humidity
57843;DHT22;43673;51.058;3.734;2023-04-03T00:01:00;5.90;99.90
57843;DHT22;43673;51.058;3.734;2023-04-03T00:03:26;5.90;99.90
57843;DHT22;43673;51.058;3.734;2023-04-03T00:05:52;5.90;99.90
57843;DHT22;43673;51.058;3.734;2023-04-03T00:08:18;5.80;99.90
57843;DHT22;43673;51.058;3.734;2023-04-03T00:10:43;5.80;99.90
57843;DHT22;43673;51.058;3.734;2023-04-03T00:13:09;5.80;99.90
57843;DHT22;43673;51.058;3.734;2023-04-03T00:15:36;5.80;99.90
57843;DHT22;43673;51.058;3.734;2023-04-03T00:18:03;5.80;99.90
57843;DHT22;43673;51.058;3.734;2023-04-03T00:20:28;6.00;99.90
57843;DHT22;43673;51.058;3.734;2023-04-03T00:22:54;5.80;99.90
57843;DHT22;43673;51.058;3.734;2023-04-03T00:25:20;5.90;99.90
57843;DHT22;43673;51.058;3.734;2023-04-03T00:27:46;5.80;99.90
57843;DHT22;43673;51.058;3.734;2023-04-03T00:30:14;5.80;99.90
57843;DHT22;43673;51.058;3.734;2023-04-03T00:32:41;5.80;99.90
57843;DHT22;43673;51.058;3.734;2023-04-03T00:35:07;5.80;99.90
57843;DHT22;43673;51.058;3.734;2023-04-03T00:37:32;5.80;99.90
57843;DHT22;43673;51.058;3.734;2023-04-03T00:39:58;5.70;99.90
57843;DHT22;43673;51.058;3.734;2023-04-03T00:42:24;5.70;99.90
57843;DHT22;43673;51.058;3.734;2023-04-03T00:47:23;5.70;99.90
57843;DHT22;43673;51.058;3.734;2023-04-03T00:49:50;5.70;99.90
57843;DHT22;43673;51.058;3.734;2023-04-03T00:52:19;5.70;99.90
57843;DHT22;43673;51.058;3.734;2023-04-03T00:54:48;5.70;99.90
57843;DHT22;43673;51.058;3.734;2023-04-03T00:57:14;5.70;99.90
57843;DHT22;43673;51.058;3.734;2023-04-03T00:59:44;5.60;99.90
57843;DHT22;43673;51.058;3.734;2023-04-03T01:02:11;5.50;99.90
57843;DHT22;43673;51.058;3.734;2023-04-03T01:04:39;5.60;99.90
57843;DHT22;43673;51.058;3.734;2023-04-03T01:07:15;5.50;99.90
57843;DHT22;43673;51.058;3.734;2023-04-03T01:09:43;5.50;99.90
57843;DHT22;43673;51.058;3.734;2023-04-03T01:14:49;5.50;99.90
57843;DHT22;43673;51.058;3.734;2023-04-03T01:17:29;5.50;99.90
57843;DHT22;43673;51.058;3.734;2023-04-03T01:25:21;5.30;99.90
57843;DHT22;43673;51.058;3.734;2023-04-03T01:27:47;5.30;99.90
57843;DHT22;43673;51.058;3.734;2023-04-03T01:30:14;5.30;99.90
57843;DHT22;43673;51.058;3.734;2023-04-03T01:32:42;5.30;99.90
57843;DHT22;43673;51.058;3.734;2023-04-03T01:35:09;5.30;99.90
57843;DHT22;43673;51.058;3.734;2023-04-03T01:37:36;5.30;99.90
57843;DHT22;43673;51.058;3.734;2023-04-03T01:40:02;5.40;99.90
57843;DHT22;43673;51.058;3.734;2023-04-03T01:42:28;5.20;99.90
57843;DHT22;43673;51.058;3.734;2023-04-03T01:44:54;5.10;99.90
57843;DHT22;43673;51.058;3.734;2023-04-03T01:47:21;5.20;99.90
57843;DHT22;43673;51.058;3.734;2023-04-03T01:49:46;5.10;99.90
57843;DHT22;43673;51.058;3.734;2023-04-03T01:52:12;5.10;99.90
57843;DHT22;43673;51.058;3.734;2023-04-03T01:54:38;5.20;99.90
57843;DHT22;43673;51.058;3.734;2023-04-03T01:57:04;5.10;99.90
57843;DHT22;43673;51.058;3.734;2023-04-03T01:59:30;5.20;99.90
57843;DHT22;43673;51.058;3.734;2023-04-03T02:01:55;5.10;99.90
57843;DHT22;43673;51.058;3.734;2023-04-03T02:04:21;5.00;99.90
57843;DHT22;43673;51.058;3.734;2023-04-03T02:06:47;5.10;99.90
57843;DHT22;43673;51.058;3.734;2023-04-03T02:09:13;5.00;99.90
57843;DHT22;43673;51.058;3.734;2023-04-03T02:11:38;5.20;99.90
57843;DHT22;43673;51.058;3.734;2023-04-03T02:14:04;5.10;99.90
57843;DHT22;43673;51.058;3.734;2023-04-03T02:16:30;5.10;99.90
57843;DHT22;43673;51.058;3.734;2023-04-03T02:18:56;5.00;99.90
57843;DHT22;43673;51.058;3.734;2023-04-03T02:21:22;5.10;99.90
57843;DHT22;43673;51.058;3.734;2023-04-03T02:23:48;5.10;99.90
57843;DHT22;43673;51.058;3.734;2023-04-03T02:26:15;5.10;99.90
57843;DHT22;43673;51.058;3.734;2023-04-03T02:28:41;5.10;99.90
57843;DHT22;43673;51.058;3.734;2023-04-03T02:31:08;5.10;99.90
57843;DHT22;43673;51.058;3.734;2023-04-03T02:33:35;5.10;99.90
57843;DHT22;43673;51.058;3.734;2023-04-03T02:36:07;5.10;99.90
57843;DHT22;43673;51.058;3.734;2023-04-03T02:38:33;5.10;99.90
57843;DHT22;43673;51.058;3.734;2023-04-03T02:41:04;5.10;99.90
57843;DHT22;43673;51.058;3.734;2023-04-03T02:43:30;5.10;99.90
57843;DHT22;43673;51.058;3.734;2023-04-03T02:45:55;5.10;99.90
57843;DHT22;43673;51.058;3.734;2023-04-03T02:48:22;5.00;99.90
57843;DHT22;43673;51.058;3.734;2023-04-03T02:50:47;4.90;99.90
57843;DHT22;43673;51.058;3.734;2023-04-03T02:53:13;4.90;99.90
57843;DHT22;43673;51.058;3.734;2023-04-03T02:55:39;4.90;99.90
57843;DHT22;43673;51.058;3.734;2023-04-03T02:58:04;4.90;99.90
57843;DHT22;43673;51.058;3.734;2023-04-03T03:00:31;4.90;99.90
57843;DHT22;43673;51.058;3.734;2023-04-03T03:02:56;4.90;99.90
57843;DHT22;43673;51.058;3.734;2023-04-03T03:05:22;4.90;99.90
57843;DHT22;43673;51.058;3.734;2023-04-03T03:07:48;4.80;99.90
57843;DHT22;43673;51.058;3.734;2023-04-03T03:10:13;4.90;99.90
57843;DHT22;43673;51.058;3.734;2023-04-03T03:12:39;4.90;99.90
57843;DHT22;43673;51.058;3.734;2023-04-03T03:15:06;4.80;99.90
57843;DHT22;43673;51.058;3.734;2023-04-03T03:17:32;4.80;99.90
57843;DHT22;43673;51.058;3.734;2023-04-03T03:19:58;4.80;99.90
57843;DHT22;43673;51.058;3.734;2023-04-03T03:22:25;4.90;99.90
57843;DHT22;43673;51.058;3.734;2023-04-03T03:24:51;4.80;99.90
57843;DHT22;43673;51.058;3.734;2023-04-03T03:27:17;4.90;99.90
57843;DHT22;43673;51.058;3.734;2023-04-03T03:29:43;4.80;99.90
57843;DHT22;43673;51.058;3.734;2023-04-03T03:32:08;4.80;99.90
57843;DHT22;43673;51.058;3.734;2023-04-03T03:34:34;4.70;99.90
57843;DHT22;43673;51.058;3.734;2023-04-03T03:37:00;4.70;99.90
57843;DHT22;43673;51.058;3.734;2023-04-03T03:39:26;4.70;99.90
57843;DHT22;43673;51.058;3.734;2023-04-03T03:41:52;4.70;99.90
57843;DHT22;43673;51.058;3.734;2023-04-03T03:44:19;4.70;99.90
57843;DHT22;43673;51.058;3.734;2023-04-03T03:46:48;4.60;99.90
57843;DHT22;43673;51.058;3.734;2023-04-03T03:49:25;4.60;99.90
57843;DHT22;43673;51.058;3.734;2023-04-03T03:51:53;4.60;99.90
57843;DHT22;43673;51.058;3.734;2023-04-03T03:54:19;4.60;99.90
57843;DHT22;43673;51.058;3.734;2023-04-03T03:56:45;4.70;99.90
57843;DHT22;43673;51.058;3.734;2023-04-03T03:59:11;4.60;99.90
57843;DHT22;43673;51.058;3.734;2023-04-03T04:01:37;4.60;99.90
57843;DHT22;43673;51.058;3.734;2023-04-03T04:04:03;4.50;99.90
57843;DHT22;43673;51.058;3.734;2023-04-03T04:06:29;4.60;99.90
57843;DHT22;43673;51.058;3.734;2023-04-03T04:08:55;4.50;99.90
57843;DHT22;43673;51.058;3.734;2023-04-03T04:11:21;4.50;99.90
57843;DHT22;43673;51.058;3.734;2023-04-03T04:13:47;4.40;99.90
57843;DHT22;43673;51.058;3.734;2023-04-03T04:16:13;4.50;99.90
57843;DHT22;43673;51.058;3.734;2023-04-03T04:18:38;4.30;99.90
57843;DHT22;43673;51.058;3.734;2023-04-03T04:21:04;4.40;99.90
57843;DHT22;43673;51.058;3.734;2023-04-03T04:23:30;4.40;99.90
57843;DHT22;43673;51.058;3.734;2023-04-03T04:25:56;4.40;99.90
57843;DHT22;43673;51.058;3.734;2023-04-03T04:28:21;4.40;99.90
57843;DHT22;43673;51.058;3.734;2023-04-03T04:30:47;4.40;99.90
57843;DHT22;43673;51.058;3.734;2023-04-03T04:33:13;4.40;99.90
57843;DHT22;43673;51.058;3.734;2023-04-03T04:35:41;4.40;99.90
57843;DHT22;43673;51.058;3.734;2023-04-03T04:38:06;4.40;99.90
57843;DHT22;43673;51.058;3.734;2023-04-03T04:40:34;4.30;99.90
57843;DHT22;43673;51.058;3.734;2023-04-03T04:43:00;4.30;99.90
57843;DHT22;43673;51.058;3.734;2023-04-03T04:45:25;4.30;99.90
57843;DHT22;43673;51.058;3.734;2023-04-03T04:47:51;4.30;99.90
57843;DHT22;43673;51.058;3.734;2023-04-03T04:50:18;4.30;99.90
57843;DHT22;43673;51.058;3.734;2023-04-03T04:52:44;4.30;99.90
57843;DHT22;43673;51.058;3.734;2023-04-03T04:55:09;4.30;99.90
57843;DHT22;43673;51.058;3.734;2023-04-03T04:57:35;4.30;99.90
57843;DHT22;43673;51.058;3.734;2023-04-03T05:00:02;4.30;99.90
57843;DHT22;43673;51.058;3.734;2023-04-03T05:02:28;4.30;99.90
57843;DHT22;43673;51.058;3.734;2023-04-03T05:04:54;4.30;99.90
57843;DHT22;43673;51.058;3.734;2023-04-03T05:07:20;4.20;99.90
57843;DHT22;43673;51.058;3.734;2023-04-03T05:09:45;4.20;99.90
57843;DHT22;43673;51.058;3.734;2023-04-03T05:12:11;4.30;99.90
57843;DHT22;43673;51.058;3.734;2023-04-03T05:14:37;4.10;99.90
57843;DHT22;43673;51.058;3.734;2023-04-03T05:17:03;4.00;99.90
57843;DHT22;43673;51.058;3.734;2023-04-03T05:19:28;4.00;99.90
57843;DHT22;43673;51.058;3.734;2023-04-03T05:21:54;4.10;99.90
57843;DHT22;43673;51.058;3.734;2023-04-03T05:24:20;4.10;99.90
57843;DHT22;43673;51.058;3.734;2023-04-03T05:26:46;4.10;99.90
57843;DHT22;43673;51.058;3.734;2023-04-03T05:29:11;4.10;99.90
57843;DHT22;43673;51.058;3.734;2023-04-03T05:31:37;4.10;99.90
57843;DHT22;43673;51.058;3.734;2023-04-03T05:34:03;4.20;99.90
57843;DHT22;43673;51.058;3.734;2023-04-03T05:36:29;4.20;99.90
57843;DHT22;43673;51.058;3.734;2023-04-03T05:38:54;4.20;99.90
57843;DHT22;43673;51.058;3.734;2023-04-03T05:41:22;4.30;99.90
57843;DHT22;43673;51.058;3.734;2023-04-03T05:43:48;4.50;99.90
57843;DHT22;43673;51.058;3.734;2023-04-03T05:46:18;4.80;99.90
57843;DHT22;43673;51.058;3.734;2023-04-03T05:48:44;5.30;99.90
57843;DHT22;43673;51.058;3.734;2023-04-03T05:51:23;5.70;99.90
57843;DHT22;43673;51.058;3.734;2023-04-03T05:54:09;6.10;99.90
57843;DHT22;43673;51.058;3.734;2023-04-03T05:56:36;6.50;99.90
57843;DHT22;43673;51.058;3.734;2023-04-03T05:59:02;6.90;99.90
57843;DHT22;43673;51.058;3.734;2023-04-03T06:01:28;7.30;99.90
57843;DHT22;43673;51.058;3.734;2023-04-03T06:03:53;7.70;99.90
57843;DHT22;43673;51.058;3.734;2023-04-03T06:06:19;8.00;99.90
57843;DHT22;43673;51.058;3.734;2023-04-03T06:08:47;8.20;99.90
57843;DHT22;43673;51.058;3.734;2023-04-03T06:11:13;8.30;99.90
57843;DHT22;43673;51.058;3.734;2023-04-03T06:13:38;8.60;99.90
57843;DHT22;43673;51.058;3.734;2023-04-03T06:16:05;8.80;99.90
57843;DHT22;43673;51.058;3.734;2023-04-03T06:18:31;9.60;99.90
57843;DHT22;43673;51.058;3.734;2023-04-03T06:20:56;9.90;99.90
57843;DHT22;43673;51.058;3.734;2023-04-03T06:23:23;10.50;99.90
57843;DHT22;43673;51.058;3.734;2023-04-03T06:25:49;10.90;99.90
57843;DHT22;43673;51.058;3.734;2023-04-03T06:28:14;11.30;99.90
57843;DHT22;43673;51.058;3.734;2023-04-03T06:30:40;11.30;99.90
57843;DHT22;43673;51.058;3.734;2023-04-03T06:33:06;11.40;99.90
57843;DHT22;43673;51.058;3.734;2023-04-03T06:35:32;11.90;99.90
57843;DHT22;43673;51.058;3.734;2023-04-03T06:38:00;12.10;99.90
57843;DHT22;43673;51.058;3.734;2023-04-03T06:40:26;12.40;99.90
57843;DHT22;43673;51.058;3.734;2023-04-03T06:42:52;12.30;99.90
57843;DHT22;43673;51.058;3.734;2023-04-03T06:45:18;12.50;99.90
57843;DHT22;43673;51.058;3.734;2023-04-03T06:47:43;12.60;99.90
57843;DHT22;43673;51.058;3.734;2023-04-03T06:50:11;12.60;99.90
57843;DHT22;43673;51.058;3.734;2023-04-03T06:52:39;12.70;99.90
57843;DHT22;43673;51.058;3.734;2023-04-03T06:55:06;12.70;99.90
57843;DHT22;43673;51.058;3.734;2023-04-03T06:57:32;13.00;99.90
57843;DHT22;43673;51.058;3.734;2023-04-03T06:59:57;13.20;99.90
57843;DHT22;43673;51.058;3.734;2023-04-03T07:02:23;13.10;99.90
57843;DHT22;43673;51.058;3.734;2023-04-03T07:04:49;13.20;99.90
57843;DHT22;43673;51.058;3.734;2023-04-03T07:07:15;13.30;99.90
57843;DHT22;43673;51.058;3.734;2023-04-03T07:09:41;13.10;99.90
57843;DHT22;43673;51.058;3.734;2023-04-03T07:12:08;13.40;99.90
57843;DHT22;43673;51.058;3.734;2023-04-03T07:14:33;13.50;99.70
57843;DHT22;43673;51.058;3.734;2023-04-03T07:17:00;13.40;99.90
57843;DHT22;43673;51.058;3.734;2023-04-03T07:19:25;14.00;99.30
57843;DHT22;43673;51.058;3.734;2023-04-03T07:21:53;14.60;97.80
57843;DHT22;43673;51.058;3.734;2023-04-03T07:24:19;14.80;96.50
57843;DHT22;43673;51.058;3.734;2023-04-03T07:26:49;14.50;96.30
57843;DHT22;43673;51.058;3.734;2023-04-03T07:29:15;14.20;96.70
57843;DHT22;43673;51.058;3.734;2023-04-03T07:31:41;14.00;96.80
57843;DHT22;43673;51.058;3.734;2023-04-03T07:34:07;13.70;97.50
57843;DHT22;43673;51.058;3.734;2023-04-03T07:36:35;13.70;98.00
57843;DHT22;43673;51.058;3.734;2023-04-03T07:39:01;13.60;98.00
57843;DHT22;43673;51.058;3.734;2023-04-03T07:41:30;13.20;98.80
57843;DHT22;43673;51.058;3.734;2023-04-03T07:43:56;13.30;99.40
57843;DHT22;43673;51.058;3.734;2023-04-03T07:46:23;13.50;99.30
57843;DHT22;43673;51.058;3.734;2023-04-03T07:48:49;13.50;98.00
57843;DHT22;43673;51.058;3.734;2023-04-03T07:51:14;13.30;98.30
57843;DHT22;43673;51.058;3.734;2023-04-03T07:53:40;13.00;98.80
57843;DHT22;43673;51.058;3.734;2023-04-03T07:56:07;12.80;99.80
57843;DHT22;43673;51.058;3.734;2023-04-03T07:58:33;12.60;99.80
57843;DHT22;43673;51.058;3.734;2023-04-03T08:00:59;12.60;99.90
57843;DHT22;43673;51.058;3.734;2023-04-03T08:03:25;12.80;99.90
57843;DHT22;43673;51.058;3.734;2023-04-03T08:05:51;13.30;99.90
57843;DHT22;43673;51.058;3.734;2023-04-03T08:08:20;13.70;98.80
57843;DHT22;43673;51.058;3.734;2023-04-03T08:10:53;13.80;98.80
57843;DHT22;43673;51.058;3.734;2023-04-03T08:13:20;13.60;98.00
57843;DHT22;43673;51.058;3.734;2023-04-03T08:15:46;13.30;98.60
57843;DHT22;43673;51.058;3.734;2023-04-03T08:18:13;12.90;99.10
57843;DHT22;43673;51.058;3.734;2023-04-03T08:20:40;13.10;98.90
57843;DHT22;43673;51.058;3.734;2023-04-03T08:23:07;13.30;98.60
57843;DHT22;43673;51.058;3.734;2023-04-03T08:25:37;13.50;98.10
57843;DHT22;43673;51.058;3.734;2023-04-03T08:28:03;13.50;97.30
57843;DHT22;43673;51.058;3.734;2023-04-03T08:30:29;13.10;98.40
57843;DHT22;43673;51.058;3.734;2023-04-03T08:32:55;13.10;99.40
57843;DHT22;43673;51.058;3.734;2023-04-03T08:35:21;13.80;98.20
57843;DHT22;43673;51.058;3.734;2023-04-03T08:37:47;14.30;97.30
57843;DHT22;43673;51.058;3.734;2023-04-03T08:40:16;14.00;97.70
57843;DHT22;43673;51.058;3.734;2023-04-03T08:45:48;14.50;97.30
57843;DHT22;43673;51.058;3.734;2023-04-03T08:51:00;15.40;94.80
57843;DHT22;43673;51.058;3.734;2023-04-03T08:53:34;15.60;93.70
57843;DHT22;43673;51.058;3.734;2023-04-03T08:56:07;15.20;93.00
57843;DHT22;43673;51.058;3.734;2023-04-03T08:58:51;14.50;94.90
57843;DHT22;43673;51.058;3.734;2023-04-03T09:01:38;14.70;93.80
57843;DHT22;43673;51.058;3.734;2023-04-03T09:04:24;14.90;92.40
57843;DHT22;43673;51.058;3.734;2023-04-03T09:07:02;15.00;91.10
57843;DHT22;43673;51.058;3.734;2023-04-03T09:09:32;15.10;90.30
57843;DHT22;43673;51.058;3.734;2023-04-03T09:17:42;14.20;89.60
57843;DHT22;43673;51.058;3.734;2023-04-03T09:23:22;14.00;90.60
57843;DHT22;43673;51.058;3.734;2023-04-03T09:25:51;14.60;91.10
57843;DHT22;43673;51.058;3.734;2023-04-03T09:28:20;15.60;88.10
57843;DHT22;43673;51.058;3.734;2023-04-03T09:30:45;15.60;82.40
57843;DHT22;43673;51.058;3.734;2023-04-03T09:33:12;14.40;83.30
57843;DHT22;43673;51.058;3.734;2023-04-03T09:35:41;13.90;83.20
57843;DHT22;43673;51.058;3.734;2023-04-03T09:40:38;14.70;83.10
57843;DHT22;43673;51.058;3.734;2023-04-03T09:45:45;14.30;80.50
57843;DHT22;43673;51.058;3.734;2023-04-03T09:53:38;13.00;88.60
57843;DHT22;43673;51.058;3.734;2023-04-03T09:56:19;13.00;89.40
57843;DHT22;43673;51.058;3.734;2023-04-03T09:59:13;13.10;89.10
57843;DHT22;43673;51.058;3.734;2023-04-03T10:01:43;13.30;88.70
57843;DHT22;43673;51.058;3.734;2023-04-03T10:04:22;13.30;88.80
57843;DHT22;43673;51.058;3.734;2023-04-03T10:06:52;14.00;88.40
57843;DHT22;43673;51.058;3.734;2023-04-03T10:09:55;14.40;84.50
57843;DHT22;43673;51.058;3.734;2023-04-03T10:12:28;14.40;81.40
57843;DHT22;43673;51.058;3.734;2023-04-03T10:15:00;14.40;82.50
57843;DHT22;43673;51.058;3.734;2023-04-03T10:25:32;15.20;79.60
57843;DHT22;43673;51.058;3.734;2023-04-03T10:28:09;14.80;81.20
57843;DHT22;43673;51.058;3.734;2023-04-03T10:31:00;14.70;80.50
57843;DHT22;43673;51.058;3.734;2023-04-03T10:34:06;15.00;80.10
57843;DHT22;43673;51.058;3.734;2023-04-03T10:36:46;14.80;80.00
57843;DHT22;43673;51.058;3.734;2023-04-03T10:42:33;15.30;78.60
57843;DHT22;43673;51.058;3.734;2023-04-03T10:48:07;15.00;77.70
57843;DHT22;43673;51.058;3.734;2023-04-03T10:53:44;15.20;75.20
57843;DHT22;43673;51.058;3.734;2023-04-03T11:01:37;15.10;71.00
57843;DHT22;43673;51.058;3.734;2023-04-03T11:04:10;15.80;72.00
57843;DHT22;43673;51.058;3.734;2023-04-03T11:06:45;15.90;71.00
57843;DHT22;43673;51.058;3.734;2023-04-03T11:09:26;16.20;70.90
57843;DHT22;43673;51.058;3.734;2023-04-03T11:12:04;16.10;68.20
57843;DHT22;43673;51.058;3.734;2023-04-03T11:14:36;15.50;68.30
57843;DHT22;43673;51.058;3.734;2023-04-03T11:22:48;13.80;73.80
57843;DHT22;43673;51.058;3.734;2023-04-03T11:25:22;13.90;72.40
57843;DHT22;43673;51.058;3.734;2023-04-03T11:28:03;14.40;71.60
57843;DHT22;43673;51.058;3.734;2023-04-03T11:40:50;15.20;66.30
57843;DHT22;43673;51.058;3.734;2023-04-03T11:43:27;14.50;65.40
57843;DHT22;43673;51.058;3.734;2023-04-03T11:46:05;14.00;65.70
57843;DHT22;43673;51.058;3.734;2023-04-03T12:08:59;11.50;67.60
57843;DHT22;43673;51.058;3.734;2023-04-03T12:11:32;11.70;66.10
57843;DHT22;43673;51.058;3.734;2023-04-03T12:19:27;11.40;70.60
57843;DHT22;43673;51.058;3.734;2023-04-03T12:35:47;11.30;78.60
57843;DHT22;43673;51.058;3.734;2023-04-03T12:38:41;11.20;74.90
57843;DHT22;43673;51.058;3.734;2023-04-03T12:41:49;11.50;74.20
57843;DHT22;43673;51.058;3.734;2023-04-03T12:44:25;11.60;74.10
57843;DHT22;43673;51.058;3.734;2023-04-03T12:47:00;11.50;74.70
57843;DHT22;43673;51.058;3.734;2023-04-03T12:49:39;11.40;73.80
57843;DHT22;43673;51.058;3.734;2023-04-03T12:52:40;11.20;74.50
57843;DHT22;43673;51.058;3.734;2023-04-03T12:55:12;11.00;75.00
57843;DHT22;43673;51.058;3.734;2023-04-03T12:57:39;11.20;74.30
57843;DHT22;43673;51.058;3.734;2023-04-03T13:00:33;11.20;74.70
57843;DHT22;43673;51.058;3.734;2023-04-03T13:03:02;11.20;74.50
57843;DHT22;43673;51.058;3.734;2023-04-03T13:08:04;11.10;75.40
57843;DHT22;43673;51.058;3.734;2023-04-03T13:10:31;11.30;74.00
57843;DHT22;43673;51.058;3.734;2023-04-03T13:13:07;11.30;70.80
57843;DHT22;43673;51.058;3.734;2023-04-03T13:15:44;11.30;70.60
57843;DHT22;43673;51.058;3.734;2023-04-03T13:18:32;11.20;70.70
57843;DHT22;43673;51.058;3.734;2023-04-03T13:23:35;11.40;70.10
57843;DHT22;43673;51.058;3.734;2023-04-03T13:26:06;11.60;69.40
57843;DHT22;43673;51.058;3.734;2023-04-03T13:28:33;11.60;67.20
57843;DHT22;43673;51.058;3.734;2023-04-03T13:33:53;11.40;67.60
57843;DHT22;43673;51.058;3.734;2023-04-03T13:41:52;11.70;66.00
57843;DHT22;43673;51.058;3.734;2023-04-03T13:46:49;11.60;61.80
57843;DHT22;43673;51.058;3.734;2023-04-03T13:51:45;11.50;61.10
57843;DHT22;43673;51.058;3.734;2023-04-03T13:54:24;11.50;60.60
57843;DHT22;43673;51.058;3.734;2023-04-03T13:56:55;11.50;60.00
57843;DHT22;43673;51.058;3.734;2023-04-03T13:59:30;11.50;59.80
57843;DHT22;43673;51.058;3.734;2023-04-03T14:04:35;11.70;60.40
57843;DHT22;43673;51.058;3.734;2023-04-03T14:07:12;11.80;61.70
57843;DHT22;43673;51.058;3.734;2023-04-03T14:09:39;11.80;59.40
57843;DHT22;43673;51.058;3.734;2023-04-03T14:12:29;11.80;59.50
57843;DHT22;43673;51.058;3.734;2023-04-03T14:14:53;11.70;59.30
57843;DHT22;43673;51.058;3.734;2023-04-03T14:17:22;11.70;59.70
57843;DHT22;43673;51.058;3.734;2023-04-03T14:19:49;11.70;59.60
57843;DHT22;43673;51.058;3.734;2023-04-03T14:22:20;11.70;60.40
57843;DHT22;43673;51.058;3.734;2023-04-03T14:24:48;11.60;60.30
57843;DHT22;43673;51.058;3.734;2023-04-03T14:27:25;11.50;61.20
57843;DHT22;43673;51.058;3.734;2023-04-03T14:29:53;11.60;61.60
57843;DHT22;43673;51.058;3.734;2023-04-03T14:32:21;11.60;61.20
57843;DHT22;43673;51.058;3.734;2023-04-03T14:34:48;11.50;59.60
57843;DHT22;43673;51.058;3.734;2023-04-03T14:37:18;11.50;59.40
57843;DHT22;43673;51.058;3.734;2023-04-03T14:39:45;11.60;58.00
57843;DHT22;43673;51.058;3.734;2023-04-03T14:42:19;11.50;57.50
57843;DHT22;43673;51.058;3.734;2023-04-03T14:44:46;11.60;58.70
57843;DHT22;43673;51.058;3.734;2023-04-03T14:47:19;11.60;58.40
57843;DHT22;43673;51.058;3.734;2023-04-03T14:49:46;11.60;58.30
57843;DHT22;43673;51.058;3.734;2023-04-03T14:52:27;11.60;58.40
57843;DHT22;43673;51.058;3.734;2023-04-03T14:54:54;11.80;58.20
57843;DHT22;43673;51.058;3.734;2023-04-03T14:57:23;11.70;58.00
57843;DHT22;43673;51.058;3.734;2023-04-03T14:59:49;11.70;59.00
57843;DHT22;43673;51.058;3.734;2023-04-03T15:02:36;11.70;59.20
57843;DHT22;43673;51.058;3.734;2023-04-03T15:05:04;11.70;59.40
57843;DHT22;43673;51.058;3.734;2023-04-03T15:08:16;11.80;59.90
57843;DHT22;43673;51.058;3.734;2023-04-03T15:10:25;11.80;60.30
57843;DHT22;43673;51.058;3.734;2023-04-03T15:12:51;11.80;59.20
57843;DHT22;43673;51.058;3.734;2023-04-03T15:15:19;11.80;58.80
57843;DHT22;43673;51.058;3.734;2023-04-03T15:17:49;11.70;59.10
57843;DHT22;43673;51.058;3.734;2023-04-03T15:20:21;11.70;59.20
57843;DHT22;43673;51.058;3.734;2023-04-03T15:22:48;11.60;58.80
57843;DHT22;43673;51.058;3.734;2023-04-03T15:25:13;11.50;59.40
57843;DHT22;43673;51.058;3.734;2023-04-03T15:27:39;11.60;59.20
57843;DHT22;43673;51.058;3.734;2023-04-03T15:30:07;11.60;58.80
57843;DHT22;43673;51.058;3.734;2023-04-03T15:32:33;11.70;58.30
57843;DHT22;43673;51.058;3.734;2023-04-03T15:35:00;11.70;58.50
57843;DHT22;43673;51.058;3.734;2023-04-03T15:37:29;11.50;59.00
57843;DHT22;43673;51.058;3.734;2023-04-03T15:39:58;11.50;59.70
57843;DHT22;43673;51.058;3.734;2023-04-03T15:42:24;11.50;59.60
57843;DHT22;43673;51.058;3.734;2023-04-03T15:44:50;11.50;60.10
57843;DHT22;43673;51.058;3.734;2023-04-03T15:47:16;11.50;60.00
57843;DHT22;43673;51.058;3.734;2023-04-03T15:49:42;11.50;59.10
57843;DHT22;43673;51.058;3.734;2023-04-03T15:52:08;11.30;58.50
57843;DHT22;43673;51.058;3.734;2023-04-03T15:54:33;11.30;58.50
57843;DHT22;43673;51.058;3.734;2023-04-03T15:56:59;11.30;59.20
57843;DHT22;43673;51.058;3.734;2023-04-03T15:59:27;11.30;59.20
57843;DHT22;43673;51.058;3.734;2023-04-03T16:01:56;11.20;59.80
57843;DHT22;43673;51.058;3.734;2023-04-03T16:04:21;11.30;59.40
57843;DHT22;43673;51.058;3.734;2023-04-03T16:06:48;11.40;60.10
57843;DHT22;43673;51.058;3.734;2023-04-03T16:09:13;11.50;60.40
57843;DHT22;43673;51.058;3.734;2023-04-03T16:11:39;11.50;59.10
57843;DHT22;43673;51.058;3.734;2023-04-03T16:14:08;11.40;57.60
57843;DHT22;43673;51.058;3.734;2023-04-03T16:16:35;11.20;57.70
57843;DHT22;43673;51.058;3.734;2023-04-03T16:19:01;11.20;58.30
57843;DHT22;43673;51.058;3.734;2023-04-03T16:21:27;11.20;58.10
57843;DHT22;43673;51.058;3.734;2023-04-03T16:23:53;11.10;57.50
57843;DHT22;43673;51.058;3.734;2023-04-03T16:26:21;11.00;57.40
57843;DHT22;43673;51.058;3.734;2023-04-03T16:28:46;11.00;57.20
57843;DHT22;43673;51.058;3.734;2023-04-03T16:31:12;11.10;58.60
57843;DHT22;43673;51.058;3.734;2023-04-03T16:33:38;11.00;58.70
57843;DHT22;43673;51.058;3.734;2023-04-03T16:36:04;11.10;58.50
57843;DHT22;43673;51.058;3.734;2023-04-03T16:38:30;11.10;58.20
57843;DHT22;43673;51.058;3.734;2023-04-03T16:40:56;11.20;58.90
57843;DHT22;43673;51.058;3.734;2023-04-03T16:43:25;11.10;59.10
57843;DHT22;43673;51.058;3.734;2023-04-03T16:45:51;11.10;58.80
57843;DHT22;43673;51.058;3.734;2023-04-03T16:48:16;11.00;59.50
57843;DHT22;43673;51.058;3.734;2023-04-03T16:50:46;11.10;59.50
57843;DHT22;43673;51.058;3.734;2023-04-03T16:53:13;11.00;59.80
57843;DHT22;43673;51.058;3.734;2023-04-03T16:55:39;11.00;59.50
57843;DHT22;43673;51.058;3.734;2023-04-03T16:58:05;11.00;59.10
57843;DHT22;43673;51.058;3.734;2023-04-03T17:00:34;10.90;58.00
57843;DHT22;43673;51.058;3.734;2023-04-03T17:03:00;10.70;58.90
57843;DHT22;43673;51.058;3.734;2023-04-03T17:05:26;10.70;59.60
57843;DHT22;43673;51.058;3.734;2023-04-03T17:07:52;10.60;60.30
57843;DHT22;43673;51.058;3.734;2023-04-03T17:10:17;10.70;60.10
57843;DHT22;43673;51.058;3.734;2023-04-03T17:12:43;10.70;61.00
57843;DHT22;43673;51.058;3.734;2023-04-03T17:15:09;10.70;61.50
57843;DHT22;43673;51.058;3.734;2023-04-03T17:17:35;10.80;61.80
57843;DHT22;43673;51.058;3.734;2023-04-03T17:20:02;10.80;61.20
57843;DHT22;43673;51.058;3.734;2023-04-03T17:22:28;10.80;62.10
57843;DHT22;43673;51.058;3.734;2023-04-03T17:24:54;10.70;61.70
57843;DHT22;43673;51.058;3.734;2023-04-03T17:27:20;10.60;62.30
57843;DHT22;43673;51.058;3.734;2023-04-03T17:29:46;10.60;63.90
57843;DHT22;43673;51.058;3.734;2023-04-03T17:32:12;10.40;63.30
57843;DHT22;43673;51.058;3.734;2023-04-03T17:34:38;10.40;63.80
57843;DHT22;43673;51.058;3.734;2023-04-03T17:37:04;10.40;64.60
57843;DHT22;43673;51.058;3.734;2023-04-03T17:39:30;10.30;64.60
57843;DHT22;43673;51.058;3.734;2023-04-03T17:41:56;10.30;65.00
57843;DHT22;43673;51.058;3.734;2023-04-03T17:44:22;10.20;65.50
57843;DHT22;43673;51.058;3.734;2023-04-03T17:46:47;10.20;66.20
57843;DHT22;43673;51.058;3.734;2023-04-03T17:49:13;10.20;67.40
57843;DHT22;43673;51.058;3.734;2023-04-03T17:51:40;10.20;68.00
57843;DHT22;43673;51.058;3.734;2023-04-03T17:54:07;10.20;68.50
57843;DHT22;43673;51.058;3.734;2023-04-03T17:56:33;10.20;68.90
57843;DHT22;43673;51.058;3.734;2023-04-03T17:58:59;10.10;69.00
57843;DHT22;43673;51.058;3.734;2023-04-03T18:01:27;10.00;69.20